Time;durP1;ratioP1;P1;durP2;ratioP2;P2;SDS_P1;SDS_P2;PMS_P1;PMS_P2;Temp;Humidity;BMP_temperature;BMP_pressure;BME280_temperature;BME280_humidity;BME280_pressure;Samples;Min_cycle;Max_cycle;Signal;HPM_P1;HPM_P2
2022/07/16 00:01:54;;;;;;;6.57;3.03;;;;;;;;;;5132915;27;20538;-77
2022/07/16 00:04:20;;;;;;;6.80;2.95;;;;;;;;;;5106965;27;21423;-77
2022/07/16 00:06:46;;;;;;;5.80;3.07;;;;;;;;;;5095696;28;20481;-77
2022/07/16 00:09:13;;;;;;;5.15;3.20;;;;;;;;;;5103053;28;20466;-77
2022/07/16 00:11:39;;;;;;;5.30;3.13;;;16.80;99.90;;;;;;5112669;27;20475;-77
2022/07/16 00:14:05;;;;;;;7.05;3.00;;;;;;;;;;5128912;27;20913;-77
2022/07/16 00:16:31;;;;;;;6.97;3.05;;;;;;;;;;5120462;27;20419;-77
2022/07/16 00:19:15;;;;;;;7.25;3.00;;;;;;;;;;5114378;27;20420;-77
2022/07/16 00:21:41;;;;;;;6.43;3.30;;;;;;;;;;5111926;27;20396;-77
2022/07/16 00:24:07;;;;;;;5.28;3.03;;;;;;;;;;5126499;27;20489;-76
2022/07/16 00:26:34;;;;;;;6.85;3.20;;;;;;;;;;5112078;27;20428;-77
2022/07/16 00:29:00;;;;;;;5.50;3.20;;;;;;;;;;5112187;27;20500;-76
2022/07/16 00:31:26;;;;;;;4.63;3.20;;;17.00;99.90;;;;;;5112989;27;20424;-77
2022/07/16 00:33:52;;;;;;;4.47;3.38;;;;;;;;;;5111457;28;20396;-77
2022/07/16 00:36:18;;;;;;;6.72;3.70;;;;;;;;;;5107656;27;20428;-77
2022/07/16 00:38:45;;;;;;;6.45;3.65;;;;;;;;;;5125207;27;20985;-77
2022/07/16 00:41:16;;;;;;;6.75;3.75;;;;;;;;;;5123896;27;20416;-77
2022/07/16 00:43:56;;;;;;;7.55;3.55;;;16.50;99.90;;;;;;5114115;27;20434;-77
2022/07/16 00:46:22;;;;;;;7.82;3.88;;;;;;;;;;5111278;27;20427;-78
2022/07/16 00:48:48;;;;;;;6.35;4.18;;;;;;;;;;5131038;27;20414;-76
2022/07/16 00:51:15;;;;;;;9.13;4.10;;;;;;;;;;5112931;27;20399;-76
2022/07/16 00:53:42;;;;;;;8.88;4.78;;;16.60;99.90;;;;;;5120905;27;20422;-77
2022/07/16 00:56:10;;;;;;;14.75;6.68;;;16.00;99.90;;;;;;5080161;28;20455;-76
2022/07/16 00:58:37;;;;;;;10.38;5.75;;;;;;;;;;5110871;27;20418;-76
2022/07/16 01:01:03;;;;;;;9.05;5.68;;;;;;;;;;5113009;27;20993;-76
2022/07/16 01:03:30;;;;;;;9.38;5.80;;;;;;;;;;5131038;27;20505;-76
2022/07/16 01:05:57;;;;;;;10.07;6.55;;;;;;;;;;5127779;27;20782;-76
2022/07/16 01:08:23;;;;;;;12.47;6.63;;;;;;;;;;5133793;27;20418;-76
2022/07/16 01:10:50;;;;;;;11.07;6.63;;;;;;;;;;5118851;27;20940;-76
2022/07/16 01:13:17;;;;;;;10.93;6.65;;;15.40;99.90;;;;;;5120123;27;20480;-76
2022/07/16 01:15:43;;;;;;;10.88;6.70;;;;;;;;;;5126400;27;20426;-76
2022/07/16 01:18:09;;;;;;;10.55;6.68;;;;;;;;;;5119303;27;20942;-76
2022/07/16 01:20:35;;;;;;;10.63;6.70;;;;;;;;;;5099370;28;20816;-76
2022/07/16 01:23:02;;;;;;;10.27;6.43;;;15.30;99.90;;;;;;5131463;27;20399;-76
2022/07/16 01:25:28;;;;;;;13.57;6.78;;;;;;;;;;5127708;27;20486;-76
2022/07/16 01:27:54;;;;;;;11.80;6.57;;;;;;;;;;5111216;28;20476;-76
2022/07/16 01:30:20;;;;;;;12.80;7.03;;;;;;;;;;5110802;28;20483;-76
2022/07/16 01:32:46;;;;;;;13.07;7.40;;;15.60;99.90;;;;;;5113840;27;20414;-76
2022/07/16 01:35:12;;;;;;;13.07;6.80;;;;;;;;;;5125503;27;20414;-76
2022/07/16 01:37:38;;;;;;;12.10;7.05;;;;;;;;;;5128210;27;20482;-76
2022/07/16 01:40:04;;;;;;;14.20;6.97;;;;;;;;;;5113110;28;20418;-76
2022/07/16 01:42:30;;;;;;;12.57;6.20;;;;;;;;;;5106893;28;20432;-76
2022/07/16 01:44:56;;;;;;;12.65;6.63;;;;;;;;;;5107367;27;20432;-76
2022/07/16 01:47:23;;;;;;;12.55;5.95;;;;;;;;;;5110344;28;20416;-76
2022/07/16 01:49:49;;;;;;;12.10;5.82;;;;;;;;;;5096831;28;20420;-76
2022/07/16 01:52:17;;;;;;;10.93;5.90;;;;;;;;;;5121825;27;20416;-76
2022/07/16 01:54:46;;;;;;;10.48;6.05;;;15.30;99.90;;;;;;5119704;27;20921;-76
2022/07/16 01:57:12;;;;;;;10.80;5.60;;;;;;;;;;5111861;28;20851;-76
2022/07/16 01:59:38;;;;;;;12.85;5.40;;;;;;;;;;5110580;28;20495;-76
2022/07/16 02:02:05;;;;;;;11.80;5.40;;;15.30;99.90;;;;;;5109095;27;20415;-76
2022/07/16 02:04:32;;;;;;;12.63;5.45;;;;;;;;;;5127586;27;20425;-76
2022/07/16 02:06:58;;;;;;;8.68;4.90;;;;;;;;;;5110664;28;20407;-76
2022/07/16 02:09:24;;;;;;;10.40;4.63;;;;;;;;;;5111245;27;20408;-76
2022/07/16 02:11:50;;;;;;;9.25;4.35;;;;;;;;;;5100233;28;20431;-76
2022/07/16 02:14:16;;;;;;;11.05;4.38;;;;;;;;;;5117671;27;20541;-76
2022/07/16 02:16:43;;;;;;;7.20;3.90;;;;;;;;;;5112270;27;20428;-77
2022/07/16 02:19:09;;;;;;;7.82;3.90;;;;;;;;;;5116277;27;20411;-77
2022/07/16 02:21:35;;;;;;;10.00;3.40;;;;;;;;;;5115388;28;20416;-77
2022/07/16 02:24:01;;;;;;;8.00;3.10;;;;;;;;;;5113388;27;20473;-77
2022/07/16 02:26:27;;;;;;;8.52;3.10;;;;;;;;;;5130979;27;20418;-77
2022/07/16 02:28:53;;;;;;;7.00;2.70;;;;;;;;;;5113768;27;20480;-77
2022/07/16 02:31:20;;;;;;;8.53;2.70;;;;;;;;;;5130994;27;20543;-77
2022/07/16 02:33:46;;;;;;;6.57;2.92;;;;;;;;;;5130968;27;20411;-76
2022/07/16 02:36:12;;;;;;;8.60;2.95;;;;;;;;;;5101972;27;20424;-77
2022/07/16 02:38:38;;;;;;;6.63;3.10;;;;;;;;;;5125466;27;20509;-76
2022/07/16 02:41:04;;;;;;;7.55;2.40;;;;;;;;;;5110099;27;20420;-77
2022/07/16 02:43:30;;;;;;;6.53;2.83;;;;;;;;;;5131743;27;20422;-77
2022/07/16 02:45:56;;;;;;;8.40;2.78;;;;;;;;;;5128938;27;20422;-77
2022/07/16 02:48:22;;;;;;;7.57;2.90;;;;;;;;;;5116395;27;20435;-77
2022/07/16 02:50:48;;;;;;;6.45;2.53;;;;;;;;;;5115807;27;20419;-77
2022/07/16 02:53:15;;;;;;;4.85;2.33;;;;;;;;;;5132163;27;20489;-76
2022/07/16 02:55:41;;;;;;;6.97;2.53;;;;;;;;;;5127637;27;20421;-76
2022/07/16 02:58:07;;;;;;;5.03;2.30;;;;;;;;;;5114699;27;20415;-77
2022/07/16 03:00:33;;;;;;;7.75;2.78;;;;;;;;;;5099329;27;20422;-76
2022/07/16 03:02:59;;;;;;;7.32;2.47;;;;;;;;;;5122790;27;20422;-77
2022/07/16 03:05:26;;;;;;;5.85;2.50;;;;;;;;;;5127001;27;20418;-77
2022/07/16 03:07:52;;;;;;;6.22;2.60;;;14.70;99.90;;;;;;5114063;27;20510;-76
2022/07/16 03:10:18;;;;;;;6.20;2.60;;;;;;;;;;5125504;27;20476;-77
2022/07/16 03:12:44;;;;;;;6.57;2.67;;;;;;;;;;5122677;27;20860;-77
2022/07/16 03:15:12;;;;;;;9.57;2.60;;;;;;;;;;5129996;27;20422;-77
2022/07/16 03:17:38;;;;;;;6.97;2.70;;;;;;;;;;5130352;27;20461;-76
2022/07/16 03:20:05;;;;;;;6.93;2.60;;;;;;;;;;5114375;27;20770;-77
2022/07/16 03:22:31;;;;;;;9.52;3.03;;;;;;;;;;5113788;27;20772;-77
2022/07/16 03:24:57;;;;;;;6.53;2.80;;;;;;;;;;5102808;27;21014;-76
2022/07/16 03:27:23;;;;;;;7.20;2.97;;;;;;;;;;5132315;27;21051;-76
2022/07/16 03:29:49;;;;;;;10.02;3.10;;;;;;;;;;5133236;27;20428;-76
2022/07/16 03:32:15;;;;;;;6.32;3.08;;;;;;;;;;5128494;27;20507;-77
2022/07/16 03:34:41;;;;;;;9.32;3.38;;;;;;;;;;5128110;27;20422;-76
2022/07/16 03:37:07;;;;;;;8.95;3.38;;;;;;;;;;5112696;28;20483;-76
2022/07/16 03:39:33;;;;;;;8.40;3.05;;;;;;;;;;5111400;27;20403;-76
2022/07/16 03:41:59;;;;;;;9.30;3.63;;;;;;;;;;5118845;27;20424;-76
2022/07/16 03:44:25;;;;;;;10.00;3.53;;;;;;;;;;5113938;27;20400;-76
2022/07/16 03:46:51;;;;;;;10.52;3.35;;;;;;;;;;5112411;27;20416;-76
2022/07/16 03:49:18;;;;;;;7.20;3.42;;;;;;;;;;5113536;27;20424;-77
2022/07/16 03:51:44;;;;;;;9.67;3.40;;;;;;;;;;5127609;27;20511;-76
2022/07/16 03:54:10;;;;;;;6.80;3.38;;;;;;;;;;5102904;27;20420;-76
2022/07/16 03:56:36;;;;;;;9.27;3.45;;;;;;;;;;5127237;27;20425;-76
2022/07/16 03:59:02;;;;;;;5.97;2.97;;;;;;;;;;5112482;28;20404;-76
2022/07/16 04:01:28;;;;;;;7.88;2.95;;;;;;;;;;5127602;27;20509;-77
2022/07/16 04:03:55;;;;;;;10.35;3.28;;;;;;;;;;5112928;27;20984;-76
2022/07/16 04:06:21;;;;;;;7.18;3.03;;;;;;;;;;5131720;27;20431;-77
2022/07/16 04:08:47;;;;;;;8.70;3.07;;;;;;;;;;5129730;27;20425;-77
2022/07/16 04:11:14;;;;;;;11.80;3.20;;;;;;;;;;5115534;27;20409;-76
2022/07/16 04:13:40;;;;;;;6.72;2.80;;;;;;;;;;5122697;27;20450;-77
2022/07/16 04:16:07;;;;;;;9.40;3.10;;;14.10;99.90;;;;;;5116157;27;20452;-77
2022/07/16 04:18:33;;;;;;;8.20;2.80;;;;;;;;;;5112394;27;20427;-76
2022/07/16 04:20:59;;;;;;;9.87;2.70;;;;;;;;;;5123733;27;20463;-76
2022/07/16 04:23:25;;;;;;;6.65;2.65;;;;;;;;;;5104612;27;20414;-76
2022/07/16 04:25:51;;;;;;;9.07;3.00;;;;;;;;;;5121957;27;20955;-76
2022/07/16 04:28:18;;;;;;;8.25;2.60;;;;;;;;;;5123791;27;20419;-76
2022/07/16 04:30:44;;;;;;;8.48;2.53;;;;;;;;;;5126867;27;20421;-77
2022/07/16 04:33:10;;;;;;;9.32;2.60;;;;;;;;;;5113271;27;20466;-77
2022/07/16 04:35:36;;;;;;;6.70;2.42;;;;;;;;;;5118515;27;20825;-76
2022/07/16 04:38:03;;;;;;;7.05;2.70;;;;;;;;;;5123854;27;20456;-77
2022/07/16 04:40:29;;;;;;;5.63;2.08;;;;;;;;;;5130462;27;20432;-76
2022/07/16 04:42:55;;;;;;;11.80;2.53;;;;;;;;;;5128168;27;20422;-76
2022/07/16 04:45:21;;;;;;;10.80;2.40;;;;;;;;;;5127870;27;20432;-76
2022/07/16 04:47:48;;;;;;;7.32;2.08;;;;;;;;;;5134042;27;20407;-77
2022/07/16 04:50:14;;;;;;;7.03;2.55;;;;;;;;;;5131859;27;20750;-76
2022/07/16 04:52:40;;;;;;;9.95;2.38;;;;;;;;;;5128882;27;20501;-77
2022/07/16 04:55:06;;;;;;;7.72;2.20;;;;;;;;;;5109772;27;20420;-76
2022/07/16 04:57:32;;;;;;;7.85;2.50;;;;;;;;;;5102311;27;20424;-74
2022/07/16 04:59:58;;;;;;;6.35;2.08;;;;;;;;;;5116593;27;20899;-76
2022/07/16 05:05:29;;;;;;;7.72;2.20;;;14.20;99.90;;;;;;5093431;27;20430;-76
2022/07/16 05:07:55;;;;;;;8.90;2.47;;;;;;;;;;5128629;27;20415;-77
2022/07/16 05:10:21;;;;;;;9.25;1.92;;;;;;;;;;5097337;27;20474;-76
2022/07/16 05:12:47;;;;;;;6.72;1.77;;;;;;;;;;5130779;27;20415;-76
2022/07/16 05:15:13;;;;;;;7.72;2.70;;;14.60;99.90;;;;;;5113699;27;20921;-76
2022/07/16 05:17:39;;;;;;;9.15;2.20;;;14.60;99.90;;;;;;5132724;27;20477;-77
2022/07/16 05:20:06;;;;;;;7.38;2.05;;;;;;;;;;5127026;27;20495;-77
2022/07/16 05:22:32;;;;;;;6.80;1.90;;;;;;;;;;5119915;27;20425;-76
2022/07/16 05:24:58;;;;;;;9.35;2.10;;;;;;;;;;5125470;27;20455;-75
2022/07/16 05:27:24;;;;;;;8.82;2.15;;;;;;;;;;5116186;27;20413;-75
2022/07/16 05:29:49;;;;;;;6.68;1.75;;;14.60;99.90;;;;;;5094203;28;20412;-75
2022/07/16 05:32:15;;;;;;;6.90;1.73;;;14.90;99.90;;;;;;5107482;28;20531;-75
2022/07/16 05:34:41;;;;;;;7.90;1.85;;;;;;;;;;5111079;27;20405;-75
2022/07/16 05:37:07;;;;;;;7.60;1.85;;;;;;;;;;5096462;28;20439;-75
2022/07/16 05:39:33;;;;;;;8.48;1.95;;;;;;;;;;5118682;27;20580;-75
2022/07/16 05:41:59;;;;;;;6.30;1.75;;;15.10;99.90;;;;;;5123039;27;20426;-75
2022/07/16 05:44:25;;;;;;;7.40;1.58;;;;;;;;;;5120772;28;20936;-75
2022/07/16 05:46:52;;;;;;;7.13;1.60;;;;;;;;;;5098741;27;20503;-75
2022/07/16 05:49:18;;;;;;;6.80;1.80;;;;;;;;;;5111742;27;20408;-75
2022/07/16 05:51:44;;;;;;;5.55;1.60;;;;;;;;;;5126535;27;20415;-76
2022/07/16 05:54:10;;;;;;;7.07;1.83;;;15.40;99.90;;;;;;5103390;28;20440;-76
2022/07/16 05:56:36;;;;;;;6.57;1.50;;;;;;;;;;5124726;27;20437;-76
2022/07/16 05:59:02;;;;;;;5.32;1.35;;;;;;;;;;5110866;27;20452;-76
2022/07/16 06:01:29;;;;;;;6.03;1.48;;;;;;;;;;5120690;27;20831;-76
2022/07/16 06:03:55;;;;;;;9.10;1.70;;;;;;;;;;5135022;27;20400;-76
2022/07/16 06:06:21;;;;;;;6.05;1.48;;;15.80;99.90;;;;;;5118821;27;20424;-76
2022/07/16 06:08:47;;;;;;;6.20;1.40;;;;;;;;;;5120417;27;20454;-76
2022/07/16 06:11:13;;;;;;;5.25;1.40;;;16.20;99.90;;;;;;5114599;27;20416;-77
2022/07/16 06:13:38;;;;;;;5.80;1.40;;;16.20;99.90;;;;;;5110720;27;20421;-76
2022/07/16 06:16:07;;;;;;;5.90;1.35;;;;;;;;;;5119038;27;20922;-76
2022/07/16 06:18:33;;;;;;;8.27;1.70;;;16.30;99.90;;;;;;5114015;27;20443;-76
2022/07/16 06:20:59;;;;;;;6.95;1.55;;;;;;;;;;5124239;27;20790;-76
2022/07/16 06:23:25;;;;;;;5.78;1.60;;;16.50;99.90;;;;;;5113393;27;20438;-77
2022/07/16 06:25:51;;;;;;;6.10;1.83;;;;;;;;;;5112673;27;20414;-76
2022/07/16 06:28:17;;;;;;;5.90;1.70;;;;;;;;;;5115582;27;20418;-76
2022/07/16 06:30:43;;;;;;;7.90;1.50;;;;;;;;;;5114847;27;20388;-76
2022/07/16 06:33:10;;;;;;;5.25;1.40;;;15.90;99.90;;;;;;5125239;27;20422;-76
2022/07/16 06:35:36;;;;;;;4.33;1.03;;;;;;;;;;5127350;27;20421;-76
2022/07/16 06:38:03;;;;;;;5.80;1.40;;;;;;;;;;5097937;27;20431;-76
2022/07/16 06:40:29;;;;;;;8.27;1.45;;;15.90;99.90;;;;;;5132626;27;20417;-76
2022/07/16 06:42:55;;;;;;;4.47;1.20;;;;;;;;;;5127407;27;20932;-76
2022/07/16 06:45:21;;;;;;;3.38;1.00;;;;;;;;;;5113771;27;20428;-75
2022/07/16 06:47:47;;;;;;;4.15;1.13;;;;;;;;;;5126891;27;20550;-75
2022/07/16 06:50:15;;;;;;;5.50;1.48;;;;;;;;;;5132773;27;20429;-75
2022/07/16 06:52:41;;;;;;;5.55;1.30;;;;;;;;;;5109269;27;20967;-74
2022/07/16 06:55:07;;;;;;;5.88;1.50;;;16.20;99.90;;;;;;5130762;27;20424;-74
2022/07/16 06:57:33;;;;;;;4.63;1.40;;;16.50;99.90;;;;;;5133388;27;20467;-74
2022/07/16 06:59:59;;;;;;;6.63;1.30;;;;;;;;;;5097777;27;20409;-74
2022/07/16 07:02:26;;;;;;;6.75;1.40;;;;;;;;;;5123788;27;20524;-73
2022/07/16 07:04:52;;;;;;;4.47;1.20;;;;;;;;;;5116501;27;20418;-73
2022/07/16 07:07:18;;;;;;;4.00;1.20;;;;;;;;;;5129521;27;20421;-73
2022/07/16 07:09:43;;;;;;;5.35;1.08;;;16.90;99.90;;;;;;5116314;27;20778;-73
2022/07/16 07:12:11;;;;;;;4.83;1.20;;;16.90;99.90;;;;;;5121454;27;20422;-72
2022/07/16 07:14:37;;;;;;;4.20;1.27;;;;;;;;;;5132859;27;20451;-72
2022/07/16 07:17:03;;;;;;;3.97;1.08;;;16.70;99.90;;;;;;5128663;27;20878;-73
2022/07/16 07:19:29;;;;;;;4.83;1.20;;;;;;;;;;5119556;27;20498;-73
2022/07/16 07:21:55;;;;;;;4.23;1.20;;;;;;;;;;5131524;27;20509;-74
2022/07/16 07:24:21;;;;;;;4.72;1.10;;;16.70;99.90;;;;;;5132363;27;20415;-74
2022/07/16 07:26:47;;;;;;;3.75;1.10;;;;;;;;;;5134301;27;20459;-74
2022/07/16 07:29:13;;;;;;;5.18;1.13;;;;;;;;;;5134836;27;20506;-73
2022/07/16 07:31:39;;;;;;;4.60;1.27;;;16.70;99.90;;;;;;5095413;27;20408;-73
2022/07/16 07:34:05;;;;;;;3.70;1.10;;;;;;;;;;5095602;27;20432;-74
2022/07/16 07:36:31;;;;;;;4.13;1.23;;;;;;;;;;5113620;28;20924;-72
2022/07/16 07:38:56;;;;;;;5.15;1.50;;;17.40;99.90;;;;;;5113438;27;20821;-73
2022/07/16 07:41:22;;;;;;;6.80;1.20;;;17.50;99.90;;;;;;5126759;27;20461;-73
2022/07/16 07:43:48;;;;;;;3.50;1.05;;;17.80;99.90;;;;;;5115556;27;20414;-73
2022/07/16 07:46:14;;;;;;;4.17;1.10;;;;;;;;;;5124226;27;20424;-73
2022/07/16 07:48:40;;;;;;;4.55;1.08;;;;;;;;;;5120499;27;20424;-73
2022/07/16 07:51:05;;;;;;;3.97;1.20;;;17.90;99.90;;;;;;5127428;27;20425;-73
2022/07/16 07:53:33;;;;;;;5.18;1.13;;;18.00;99.90;;;;;;5111917;27;20493;-72
2022/07/16 07:55:59;;;;;;;5.05;0.80;;;17.70;99.90;;;;;;5118315;27;20764;-73
2022/07/16 07:58:25;;;;;;;2.55;1.05;;;;;;;;;;5109297;27;20430;-73
2022/07/16 08:00:54;;;;;;;2.85;0.93;;;;;;;;;;5120533;27;20420;-73
2022/07/16 08:03:20;;;;;;;5.30;1.10;;;;;;;;;;5118062;27;20432;-73
2022/07/16 08:05:46;;;;;;;4.07;1.20;;;18.00;99.90;;;;;;5122997;27;20419;-73
2022/07/16 08:08:12;;;;;;;2.53;1.00;;;18.70;99.90;;;;;;5127268;27;20425;-74
2022/07/16 08:10:38;;;;;;;3.60;1.17;;;;;;;;;;5128268;27;20422;-73
2022/07/16 08:13:04;;;;;;;3.75;1.00;;;;;;;;;;5112736;28;20888;-75
2022/07/16 08:15:30;;;;;;;3.88;1.20;;;18.40;99.90;;;;;;5109276;27;20418;-74
2022/07/16 08:17:56;;;;;;;4.07;1.15;;;;;;;;;;5137689;27;20396;-74
2022/07/16 08:20:22;;;;;;;5.13;1.27;;;;;;;;;;5132442;27;20850;-74
2022/07/16 08:22:48;;;;;;;4.28;1.10;;;18.30;99.90;;;;;;5130463;27;20410;-74
2022/07/16 08:25:56;;;;;;;5.30;1.05;;;18.50;99.90;;;;;;5101332;27;20460;-74
2022/07/16 08:28:03;;;;;;;7.15;1.40;;;;;;;;;;5114570;27;20512;-74
2022/07/16 08:30:29;;;;;;;3.97;1.23;;;;;;;;;;5128596;27;20418;-74
2022/07/16 08:32:55;;;;;;;7.13;1.20;;;;;;;;;;5128976;27;20950;-75
2022/07/16 08:35:21;;;;;;;5.20;1.38;;;;;;;;;;5120011;27;20426;-74
2022/07/16 08:37:48;;;;;;;6.77;1.10;;;;;;;;;;5116522;27;20419;-74
2022/07/16 08:40:16;;;;;;;5.22;1.30;;;18.30;99.90;;;;;;5117803;27;20432;-74
2022/07/16 08:42:42;;;;;;;4.40;1.13;;;;;;;;;;5119349;27;20431;-74
2022/07/16 08:45:10;;;;;;;4.07;1.10;;;;;;;;;;5114219;27;20431;-76
2022/07/16 08:47:38;;;;;;;8.30;1.45;;;;;;;;;;5126614;27;20406;-74
2022/07/16 08:50:08;;;;;;;5.30;1.33;;;;;;;;;;5122075;27;20468;-74
2022/07/16 08:53:03;;;;;;;4.53;1.25;;;18.30;99.90;;;;;;5119316;27;20426;-74
2022/07/16 08:55:29;;;;;;;5.38;1.60;;;17.90;99.90;;;;;;5124064;27;20829;-74
2022/07/16 08:57:57;;;;;;;9.30;1.50;;;17.90;99.90;;;;;;5127997;27;20486;-74
2022/07/16 09:00:23;;;;;;;6.20;1.40;;;;;;;;;;5130035;27;20455;-73
2022/07/16 09:02:49;;;;;;;5.40;1.45;;;;;;;;;;5118347;27;20412;-74
2022/07/16 09:05:15;;;;;;;5.95;1.42;;;;;;;;;;5117745;27;20423;-74
2022/07/16 09:07:41;;;;;;;4.20;1.27;;;;;;;;;;5130646;27;20414;-74
2022/07/16 09:10:09;;;;;;;6.65;1.55;;;18.60;99.90;;;;;;5122556;27;20421;-74
2022/07/16 09:12:36;;;;;;;7.47;1.42;;;;;;;;;;5120550;27;20740;-74
2022/07/16 09:15:26;;;;;;;4.03;1.20;;;18.00;99.90;;;;;;5124925;27;20401;-75
2022/07/16 09:18:11;;;;;;;5.43;1.35;;;;;;;;;;5125710;27;20775;-74
2022/07/16 09:20:41;;;;;;;7.35;1.48;;;;;;;;;;5121371;27;20416;-73
2022/07/16 09:23:21;;;;;;;6.07;1.10;;;17.90;99.90;;;;;;5114637;27;20922;-74
2022/07/16 09:25:49;;;;;;;6.87;1.40;;;18.20;99.90;;;;;;5117173;27;20412;-74
2022/07/16 09:28:15;;;;;;;5.43;1.30;;;18.00;99.90;;;;;;5102985;28;20419;-74
2022/07/16 09:30:41;;;;;;;7.93;1.40;;;;;;;;;;5117747;28;20766;-74
2022/07/16 09:33:22;;;;;;;4.15;1.10;;;18.20;99.90;;;;;;5116682;28;20406;-74
2022/07/16 09:35:48;;;;;;;5.22;1.42;;;;;;;;;;5122705;27;20456;-74
2022/07/16 09:38:14;;;;;;;4.47;1.20;;;18.60;99.90;;;;;;5119169;27;20487;-73
2022/07/16 09:40:46;;;;;;;3.57;1.10;;;18.50;99.90;;;;;;5129181;27;20426;-73
2022/07/16 09:43:15;;;;;;;3.08;1.00;;;;;;;;;;5110027;27;20434;-73
2022/07/16 09:46:03;;;;;;;4.32;1.10;;;;;;;;;;5114228;27;20908;-76
2022/07/16 09:48:36;;;;;;;5.77;1.20;;;;;;;;;;5101760;27;20477;-75
2022/07/16 09:51:21;;;;;;;4.15;1.20;;;;;;;;;;5133538;27;20399;-74
2022/07/16 09:53:51;;;;;;;4.13;1.50;;;19.60;99.90;;;;;;5127191;27;20491;-76
2022/07/16 09:56:22;;;;;;;5.75;1.30;;;19.00;99.90;;;;;;5114140;27;20399;-74
2022/07/16 09:58:49;;;;;;;4.70;1.47;;;;;;;;;;5118689;27;20422;-74
2022/07/16 10:01:16;;;;;;;6.10;1.50;;;18.90;99.90;;;;;;5133175;27;20885;-75
2022/07/16 10:03:43;;;;;;;8.10;1.52;;;18.80;99.90;;;;;;5119683;27;20410;-75
2022/07/16 10:06:09;;;;;;;5.13;1.40;;;;;;;;;;5096152;27;20429;-75
2022/07/16 10:08:36;;;;;;;4.83;1.50;;;;;;;;;;5119105;27;20421;-76
2022/07/16 10:11:03;;;;;;;9.55;1.73;;;18.70;99.90;;;;;;5118068;27;21228;-77
2022/07/16 10:13:29;;;;;;;6.77;1.40;;;;;;;;;;5106576;27;20893;-76
2022/07/16 10:15:55;;;;;;;7.40;1.80;;;18.60;99.90;;;;;;5120606;27;20420;-76
2022/07/16 10:18:36;;;;;;;6.78;1.40;;;;;;;;;;5113418;27;20787;-76
2022/07/16 10:21:14;;;;;;;5.30;1.60;;;19.10;99.90;;;;;;5120399;27;20418;-76
2022/07/16 10:23:43;;;;;;;4.73;1.60;;;19.40;99.90;;;;;;5129873;27;20414;-77
2022/07/16 10:26:15;;;;;;;6.50;1.38;;;19.70;99.90;;;;;;5126692;27;20422;-73
2022/07/16 10:28:52;;;;;;;8.10;1.80;;;19.50;99.90;;;;;;5115652;27;20473;-75
2022/07/16 10:31:33;;;;;;;4.65;1.42;;;;;;;;;;5128796;27;20518;-76
2022/07/16 10:34:14;;;;;;;5.85;1.50;;;19.20;99.90;;;;;;5127291;27;20471;-76
2022/07/16 10:36:55;;;;;;;8.65;1.70;;;19.00;99.90;;;;;;5097285;28;20385;-77
2022/07/16 10:39:22;;;;;;;6.32;1.70;;;;;;;;;;5127601;27;20453;-76
2022/07/16 10:41:53;;;;;;;7.32;1.35;;;19.20;99.90;;;;;;5116441;27;20476;-76
2022/07/16 10:44:20;;;;;;;7.35;1.83;;;;;;;;;;5122991;27;20416;-76
2022/07/16 10:47:01;;;;;;;7.07;1.60;;;19.20;99.90;;;;;;5111569;27;20420;-76
2022/07/16 10:49:29;;;;;;;5.93;1.45;;;19.20;99.90;;;;;;5121297;27;20423;-76
2022/07/16 10:52:05;;;;;;;4.37;1.30;;;19.30;99.90;;;;;;5120334;27;20958;-76
2022/07/16 10:54:35;;;;;;;5.15;1.40;;;;;;;;;;5122766;27;20798;-75
2022/07/16 10:57:11;;;;;;;6.18;1.42;;;18.90;99.90;;;;;;5124791;27;20888;-75
2022/07/16 10:59:42;;;;;;;7.18;1.40;;;18.80;99.90;;;;;;5117214;27;20446;-75
2022/07/16 11:02:10;;;;;;;7.45;1.50;;;18.80;99.90;;;;;;5130823;27;21090;-74
2022/07/16 11:04:37;;;;;;;5.25;1.30;;;18.70;99.90;;;;;;5124534;27;20414;-74
2022/07/16 11:07:08;;;;;;;4.53;1.33;;;;;;;;;;5105215;27;20479;-74
2022/07/16 11:09:36;;;;;;;4.97;1.20;;;;;;;;;;5101152;27;20421;-74
2022/07/16 11:12:06;;;;;;;5.73;1.30;;;;;;;;;;5121024;27;20414;-74
2022/07/16 11:14:32;;;;;;;4.93;1.33;;;19.50;99.90;;;;;;5117140;27;20422;-74
2022/07/16 11:17:00;;;;;;;5.78;1.33;;;;;;;;;;5112670;27;20481;-76
2022/07/16 11:19:26;;;;;;;5.78;1.50;;;;;;;;;;5129202;27;20451;-76
2022/07/16 11:21:56;;;;;;;5.68;1.15;;;;;;;;;;5118912;27;20419;-76
2022/07/16 11:24:23;;;;;;;4.70;1.50;;;;;;;;;;5122415;27;20412;-77
2022/07/16 11:26:51;;;;;;;4.32;1.33;;;;;;;;;;5116752;27;20505;-77
2022/07/16 11:29:18;;;;;;;4.70;1.30;;;;;;;;;;5102340;28;20912;-76
2022/07/16 11:31:44;;;;;;;8.15;1.50;;;;;;;;;;5116756;27;20411;-77
2022/07/16 11:34:11;;;;;;;8.27;1.50;;;;;;;;;;5111421;27;20413;-77
2022/07/16 11:36:37;;;;;;;5.97;1.63;;;;;;;;;;5122256;27;20415;-77
2022/07/16 11:39:07;;;;;;;3.87;1.27;;;19.30;99.90;;;;;;5123851;27;20457;-77
2022/07/16 11:41:34;;;;;;;4.07;1.30;;;;;;;;;;5128794;27;20419;-77
2022/07/16 11:44:10;;;;;;;5.15;1.50;;;;;;;;;;5122350;27;20428;-77
2022/07/16 11:46:42;;;;;;;7.20;1.55;;;;;;;;;;5111293;27;20549;-77
2022/07/16 11:49:08;;;;;;;4.75;1.40;;;;;;;;;;5110384;27;20427;-76
2022/07/16 11:51:38;;;;;;;4.20;1.33;;;20.20;99.90;;;;;;5121941;27;20416;-75
2022/07/16 11:54:04;;;;;;;4.85;1.40;;;20.10;99.90;;;;;;5111198;27;20896;-75
2022/07/16 11:56:35;;;;;;;4.40;1.35;;;20.30;99.90;;;;;;5108300;27;20496;-75
2022/07/16 11:59:15;;;;;;;5.85;1.40;;;21.10;99.90;;;;;;5114691;27;20397;-74
2022/07/16 12:01:42;;;;;;;3.50;1.10;;;21.00;99.90;;;;;;5121342;27;20421;-75
2022/07/16 12:04:07;;;;;;;4.88;1.45;;;21.00;99.90;;;;;;5131429;27;20418;-74
2022/07/16 12:06:34;;;;;;;4.95;1.27;;;21.00;99.90;;;;;;5122165;27;20419;-74
2022/07/16 12:09:00;;;;;;;4.10;1.20;;;20.80;99.90;;;;;;5129584;27;20406;-75
2022/07/16 12:11:34;;;;;;;6.18;1.63;;;20.90;99.90;;;;;;5112852;27;21054;-76
2022/07/16 12:14:02;;;;;;;6.10;1.50;;;20.30;99.90;;;;;;5115899;27;20485;-74
2022/07/16 12:16:28;;;;;;;6.00;1.50;;;20.50;99.90;;;;;;5117095;27;20506;-76
2022/07/16 12:19:18;;;;;;;3.10;1.10;;;20.70;99.90;;;;;;5118785;27;20505;-75
2022/07/16 12:21:48;;;;;;;4.55;1.15;;;20.90;99.90;;;;;;5115801;27;20444;-75
2022/07/16 12:24:14;;;;;;;5.95;1.42;;;21.20;99.90;;;;;;5116442;27;20773;-76
2022/07/16 12:26:41;;;;;;;3.78;1.13;;;20.90;99.90;;;;;;5126853;27;20425;-75
2022/07/16 12:29:09;;;;;;;4.60;1.20;;;21.20;99.90;;;;;;5094071;27;20424;-76
2022/07/16 12:31:38;;;;;;;6.70;1.40;;;21.30;99.90;;;;;;5126493;27;20418;-76
2022/07/16 12:34:04;;;;;;;6.05;1.48;;;21.60;99.90;;;;;;5112746;27;20405;-76
2022/07/16 12:36:35;;;;;;;7.20;1.80;;;21.10;99.90;;;;;;5121508;27;20418;-75
2022/07/16 12:39:03;;;;;;;5.50;1.38;;;;;;;;;;5132118;27;20751;-75
2022/07/16 12:41:50;;;;;;;5.97;1.33;;;20.60;99.90;;;;;;5124734;27;20426;-75
2022/07/16 12:44:19;;;;;;;9.43;1.67;;;20.60;99.90;;;;;;5112657;27;20476;-76
2022/07/16 12:46:51;;;;;;;8.17;2.20;;;20.40;99.90;;;;;;5115303;27;21633;-75
2022/07/16 12:49:26;;;;;;;5.32;1.38;;;20.70;99.90;;;;;;5118722;27;20410;-75
2022/07/16 12:51:59;;;;;;;7.47;1.45;;;21.20;99.90;;;;;;5124990;27;20410;-75
2022/07/16 12:54:26;;;;;;;5.23;1.60;;;21.10;99.90;;;;;;5131521;27;20455;-77
2022/07/16 12:59:37;;;;;;;7.85;1.52;;;21.20;99.90;;;;;;5128885;27;20429;-76
2022/07/16 13:02:05;;;;;;;9.65;1.90;;;21.00;99.90;;;;;;5118688;27;20426;-76
2022/07/16 13:04:31;;;;;;;5.13;1.63;;;21.40;99.90;;;;;;5113837;27;20439;-76
2022/07/16 13:06:57;;;;;;;6.70;1.63;;;21.20;99.90;;;;;;5109327;27;20939;-77
2022/07/16 13:09:23;;;;;;;5.93;1.77;;;20.70;99.90;;;;;;5112914;27;20415;-75
2022/07/16 13:11:52;;;;;;;7.50;1.50;;;20.90;99.90;;;;;;5120640;27;20428;-75
2022/07/16 13:14:18;;;;;;;5.90;1.67;;;20.40;99.90;;;;;;5121613;27;20459;-76
2022/07/16 13:16:43;;;;;;;4.97;1.50;;;20.60;99.90;;;;;;5129193;27;20418;-76
2022/07/16 13:19:10;;;;;;;8.55;1.55;;;20.80;99.90;;;;;;5110342;27;20432;-76
2022/07/16 13:21:37;;;;;;;6.63;1.70;;;20.80;99.90;;;;;;5115598;28;20908;-76
2022/07/16 13:24:05;;;;;;;7.78;1.90;;;21.50;99.90;;;;;;5077625;28;20420;-77
2022/07/16 13:26:33;;;;;;;5.50;1.65;;;21.30;99.90;;;;;;5122040;27;20831;-77
2022/07/16 13:28:59;;;;;;;5.10;1.30;;;21.50;99.90;;;;;;5110183;28;20547;-77
2022/07/16 13:31:25;;;;;;;5.37;1.43;;;20.30;99.90;;;;;;5115078;27;20436;-76
2022/07/16 13:33:51;;;;;;;6.63;1.52;;;21.30;99.90;;;;;;5103113;28;20490;-77
2022/07/16 13:36:18;;;;;;;5.35;1.30;;;22.40;99.90;;;;;;5111581;28;20505;-77
2022/07/16 13:38:44;;;;;;;6.05;1.38;;;21.40;99.90;;;;;;5127385;28;21247;-76
2022/07/16 13:41:11;;;;;;;4.70;1.30;;;21.60;99.90;;;;;;5094883;28;20497;-76
2022/07/16 13:43:38;;;;;;;6.03;1.50;;;21.60;99.90;;;;;;5106333;28;20929;-76
2022/07/16 13:46:06;;;;;;;5.03;1.27;;;21.00;99.90;;;;;;5120975;28;20422;-76
2022/07/16 13:48:31;;;;;;;7.03;1.40;;;20.90;99.90;;;;;;5097829;28;21174;-76
2022/07/16 13:50:57;;;;;;;7.05;1.13;;;21.10;99.90;;;;;;5101230;28;20482;-74
2022/07/16 13:53:23;;;;;;;4.30;1.38;;;21.20;99.90;;;;;;5119214;28;20541;-75
2022/07/16 13:55:49;;;;;;;4.75;1.40;;;21.60;99.90;;;;;;5114704;27;20420;-76
2022/07/16 13:58:15;;;;;;;5.53;1.40;;;22.20;99.90;;;;;;5104523;28;20422;-75
2022/07/16 14:00:56;;;;;;;6.63;1.50;;;22.00;99.90;;;;;;5114546;28;20956;-76
2022/07/16 14:03:27;;;;;;;4.85;1.25;;;22.30;99.90;;;;;;5125065;28;20500;-76